createdAt,value
2023-04-05T00:00:37.783Z,9.711720
2023-04-05T00:01:37.724Z,9.711772
2023-04-05T00:02:38.680Z,9.711681
2023-04-05T00:03:37.720Z,9.711656
2023-04-05T00:04:37.751Z,9.711704
2023-04-05T00:05:37.634Z,9.711789
2023-04-05T00:06:37.625Z,9.711793
2023-04-05T00:07:37.639Z,9.711686
2023-04-05T00:08:37.631Z,9.711649
2023-04-05T00:09:37.619Z,9.711693
2023-04-05T00:10:37.602Z,9.711773
2023-04-05T00:11:37.588Z,9.711723
2023-04-05T00:12:37.586Z,9.711688
2023-04-05T00:13:37.560Z,9.711793
2023-04-05T00:14:37.585Z,9.711835
2023-04-05T00:15:37.572Z,9.711805
2023-04-05T00:16:37.610Z,9.711685
2023-04-05T00:17:37.588Z,9.711842
2023-04-05T00:18:37.543Z,9.711583
2023-04-05T00:19:37.517Z,9.711713
2023-04-05T00:20:37.588Z,9.711739
2023-04-05T00:21:37.501Z,9.711614
2023-04-05T00:27:27.771Z,9.711916
2023-04-05T00:28:27.710Z,9.711752
2023-04-05T00:29:27.720Z,9.711638
2023-04-05T00:30:27.717Z,9.711557
2023-04-05T00:31:27.715Z,9.711469
2023-04-05T00:32:27.705Z,9.711568
2023-04-05T00:33:27.681Z,9.711510
2023-04-05T00:34:27.687Z,9.711700
2023-04-05T00:35:27.698Z,9.711658
2023-04-05T00:36:27.665Z,9.711699
2023-04-05T00:37:27.680Z,9.711736
2023-04-05T00:38:27.646Z,9.711737
2023-04-05T00:39:27.627Z,9.711743
2023-04-05T00:40:27.632Z,9.711631
2023-04-05T00:41:27.635Z,9.711679
2023-04-05T00:42:27.622Z,9.711654
2023-04-05T00:43:27.631Z,9.711733
2023-04-05T00:44:27.605Z,9.711734
2023-04-05T00:45:27.595Z,9.711674
2023-04-05T00:46:27.625Z,9.711713
2023-04-05T00:47:27.595Z,9.711679
2023-04-05T00:48:27.611Z,9.711630
2023-04-05T00:49:27.564Z,9.711605
2023-04-05T00:50:27.570Z,9.711626
2023-04-05T00:51:27.574Z,9.711718
2023-04-05T00:52:27.540Z,9.711660
2023-04-05T00:53:27.537Z,9.711620
2023-04-05T00:54:27.519Z,9.711626
2023-04-05T00:55:27.545Z,9.711668
2023-04-05T00:56:27.533Z,9.711615
2023-04-05T00:57:27.510Z,9.711627
2023-04-05T00:58:27.515Z,9.711634
2023-04-05T00:59:27.562Z,9.711662
2023-04-05T01:00:27.494Z,9.711661
2023-04-05T01:01:27.541Z,9.711642
2023-04-05T01:02:27.485Z,9.711652
2023-04-05T01:03:27.471Z,9.711703
2023-04-05T01:04:27.484Z,9.711686
2023-04-05T01:05:27.436Z,9.711737
2023-04-05T01:06:27.472Z,9.711711
2023-04-05T01:07:27.436Z,9.711707
2023-04-05T01:08:27.439Z,9.711740
2023-04-05T01:09:27.421Z,9.711724
2023-04-05T01:10:27.407Z,9.711783
2023-04-05T01:11:27.399Z,9.711765
2023-04-05T01:12:27.428Z,9.711802
2023-04-05T01:13:27.375Z,9.711815
2023-04-05T01:14:27.385Z,9.711774
2023-04-05T01:15:27.440Z,9.711738
2023-04-05T01:16:27.417Z,9.711731
2023-04-05T01:17:27.368Z,9.711830
2023-04-05T01:18:28.358Z,9.711769
2023-04-05T01:19:27.335Z,9.711718
2023-04-05T01:20:27.312Z,9.711723
2023-04-05T01:21:27.318Z,9.711805
2023-04-05T01:22:27.315Z,9.711785
2023-04-05T01:23:27.296Z,9.711791
2023-04-05T01:24:27.291Z,9.711749
2023-04-05T01:25:27.285Z,9.711739
2023-04-05T01:26:27.284Z,9.711715
2023-04-05T01:27:27.295Z,9.711799
2023-04-05T01:28:27.270Z,9.711691
2023-04-05T01:29:27.278Z,9.711741
2023-04-05T01:30:27.889Z,9.711700
2023-04-05T01:31:27.271Z,9.711642
2023-04-05T01:32:27.284Z,9.711658
2023-04-05T01:33:27.225Z,9.711689
2023-04-05T01:34:27.233Z,9.711659
2023-04-05T01:35:27.217Z,9.711660
2023-04-05T01:36:27.203Z,9.711620
2023-04-05T01:37:27.197Z,9.711712
2023-04-05T01:38:27.214Z,9.711700
2023-04-05T01:39:27.182Z,9.711688
2023-04-05T01:40:27.169Z,9.711664
2023-04-05T01:41:27.163Z,9.711687
2023-04-05T01:42:27.150Z,9.711731
2023-04-05T01:43:27.155Z,9.711658
2023-04-05T01:44:27.144Z,9.711717
2023-04-05T01:45:27.135Z,9.711715
2023-04-05T01:46:27.221Z,9.711750
2023-04-05T01:47:27.173Z,9.711797
2023-04-05T01:48:27.116Z,9.711687
2023-04-05T01:49:27.117Z,9.711655
2023-04-05T01:50:27.102Z,9.711707
2023-04-05T01:51:27.104Z,9.711752
2023-04-05T01:52:27.801Z,9.711702
2023-04-05T01:53:27.079Z,9.711632
2023-04-05T01:54:27.146Z,9.711653
2023-04-05T01:55:27.058Z,9.711603
2023-04-05T01:56:27.061Z,9.711563
2023-04-05T01:57:27.073Z,9.711560
2023-04-05T01:58:27.049Z,9.711587
2023-04-05T01:59:27.077Z,9.711564
2023-04-05T02:00:27.030Z,9.711544
2023-04-05T02:01:27.151Z,9.711616
2023-04-05T02:02:27.072Z,9.711641
2023-04-05T02:03:27.083Z,9.711706
2023-04-05T02:04:27.033Z,9.711623
2023-04-05T02:05:26.983Z,9.711608
2023-04-05T02:06:27.007Z,9.711505
2023-04-05T02:07:26.980Z,9.711533
2023-04-05T02:08:26.997Z,9.711434
2023-04-05T02:09:27.961Z,9.711667
2023-04-05T02:10:26.980Z,9.711644
2023-04-05T02:11:26.976Z,9.711597
2023-04-05T02:12:26.930Z,9.711690
2023-04-05T02:13:26.956Z,9.711822
2023-04-05T02:14:26.918Z,9.711843
2023-04-05T02:15:26.921Z,9.711818
2023-04-05T02:16:26.914Z,9.711645
2023-04-05T02:17:26.890Z,9.711670
2023-04-05T02:18:26.893Z,9.711730
2023-04-05T02:19:27.803Z,9.711625
2023-04-05T02:20:26.882Z,9.711820
2023-04-05T02:21:26.862Z,9.711835
2023-04-05T02:22:26.858Z,9.712227
2023-04-05T02:23:26.850Z,9.712011
2023-04-05T02:24:26.868Z,9.711681
2023-04-05T02:25:26.852Z,9.711642
2023-04-05T02:26:26.843Z,9.711873
2023-04-05T02:27:26.863Z,9.711987
2023-04-05T02:28:26.839Z,9.711930
2023-04-05T02:29:26.813Z,9.711913
2023-04-05T02:30:26.805Z,9.711943
2023-04-05T02:31:26.864Z,9.712008
2023-04-05T02:32:26.835Z,9.712421
2023-04-05T02:33:26.783Z,9.712887
2023-04-05T02:34:26.791Z,9.712278
2023-04-05T02:35:26.782Z,9.712294
2023-04-05T02:36:26.755Z,9.712235
2023-04-05T02:37:27.757Z,9.712299
2023-04-05T02:38:26.741Z,9.712339
2023-04-05T02:39:26.740Z,9.712396
2023-04-05T02:40:26.736Z,9.712277
2023-04-05T02:41:26.744Z,9.712142
2023-04-05T02:42:26.731Z,9.711966
2023-04-05T02:43:26.715Z,9.711749
2023-04-05T02:44:26.710Z,9.711729
2023-04-05T02:45:26.697Z,9.711714
2023-04-05T02:46:26.741Z,9.711717
2023-04-05T02:47:26.707Z,9.711687
2023-04-05T02:48:26.673Z,9.711706
2023-04-05T02:49:26.655Z,9.711724
2023-04-05T02:50:26.673Z,9.711655
2023-04-05T02:51:26.645Z,9.711560
2023-04-05T02:52:26.656Z,9.711646
2023-04-05T02:53:27.327Z,9.711644
2023-04-05T02:54:26.634Z,9.711615
2023-04-05T02:55:26.628Z,9.711571
2023-04-05T02:56:27.388Z,9.711675
2023-04-05T02:57:26.627Z,9.711588
2023-04-05T02:58:26.608Z,9.711521
2023-04-05T02:59:26.642Z,9.711593
2023-04-05T03:00:26.590Z,9.711554
2023-04-05T03:01:26.598Z,9.711506
2023-04-05T03:02:26.594Z,9.711696
2023-04-05T03:03:26.615Z,9.711763
2023-04-05T03:04:26.549Z,9.711712
2023-04-05T03:05:26.551Z,9.711719
2023-04-05T03:06:26.548Z,9.711658
2023-04-05T03:07:27.387Z,9.711687
2023-04-05T03:08:26.588Z,9.711710
2023-04-05T03:09:26.521Z,9.711802
2023-04-05T03:10:26.495Z,9.711850
2023-04-05T03:11:26.506Z,9.711999
2023-04-05T03:12:26.517Z,9.712218
2023-04-05T03:13:26.472Z,9.712584
2023-04-05T03:14:26.473Z,9.712841
2023-04-05T03:15:26.454Z,9.712540
2023-04-05T03:16:26.506Z,9.712350
2023-04-05T03:17:26.482Z,9.712273
2023-04-05T03:18:26.445Z,9.712271
2023-04-05T03:19:26.434Z,9.712415
2023-04-05T03:20:26.432Z,9.712186
2023-04-05T03:21:26.436Z,9.711796
2023-04-05T03:22:26.408Z,9.711837
2023-04-05T03:23:26.410Z,9.711801
2023-04-05T03:24:26.393Z,9.711656
2023-04-05T03:25:26.396Z,9.711796
2023-04-05T03:26:26.395Z,9.711776
2023-04-05T03:27:26.377Z,9.711843
2023-04-05T03:28:26.370Z,9.711685
2023-04-05T03:29:26.897Z,9.711834
2023-04-05T03:30:26.361Z,9.711676
2023-04-05T03:31:26.384Z,9.711597
2023-04-05T03:32:26.423Z,9.711791
2023-04-05T03:33:26.345Z,9.711699
2023-04-05T03:34:26.314Z,9.711731
2023-04-05T03:35:26.347Z,9.711773
2023-04-05T03:36:26.330Z,9.711658
2023-04-05T03:37:26.311Z,9.711945
2023-04-05T03:38:26.296Z,9.711836
2023-04-05T03:39:26.274Z,9.711875
2023-04-05T03:40:26.299Z,9.711867
2023-04-05T03:41:26.263Z,9.711605
2023-04-05T03:42:26.261Z,9.711463
2023-04-05T03:43:26.252Z,9.711518
2023-04-05T03:44:26.230Z,9.711409
2023-04-05T03:45:26.234Z,9.711411
2023-04-05T03:46:26.240Z,9.711470
2023-04-05T03:47:26.236Z,9.711236
2023-04-05T03:48:26.229Z,9.711515
2023-04-05T03:49:26.224Z,9.711859
2023-04-05T03:50:26.193Z,9.712625
2023-04-05T03:51:26.885Z,9.712841
2023-04-05T03:52:26.174Z,9.712270
2023-04-05T03:53:26.188Z,9.712150
2023-04-05T03:54:26.155Z,9.711774
2023-04-05T03:55:26.166Z,9.711639
2023-04-05T03:56:26.211Z,9.711646
2023-04-05T03:57:26.153Z,9.711634
2023-04-05T03:58:26.134Z,9.711632
2023-04-05T03:59:26.176Z,9.711632
2023-04-05T04:00:26.121Z,9.711604
2023-04-05T04:01:26.121Z,9.711670
2023-04-05T04:02:26.201Z,9.711598
2023-04-05T04:03:26.161Z,9.711663
2023-04-05T04:04:26.094Z,9.711621
2023-04-05T04:05:26.136Z,9.711602
2023-04-05T04:06:26.139Z,9.711608
2023-04-05T04:07:26.070Z,9.711586
2023-04-05T04:08:26.070Z,9.711643
2023-04-05T04:09:26.058Z,9.711623
2023-04-05T04:10:26.811Z,9.711608
2023-04-05T04:11:26.065Z,9.711643
2023-04-05T04:12:26.038Z,9.711589
2023-04-05T04:13:26.019Z,9.711622
2023-04-05T04:14:26.016Z,9.711629
2023-04-05T04:15:26.003Z,9.711634
2023-04-05T04:16:27.467Z,9.711625
2023-04-05T04:17:27.034Z,9.711651
2023-04-05T04:18:26.176Z,9.711673
2023-04-05T04:19:25.957Z,9.711648
2023-04-05T04:20:25.978Z,9.711645
2023-04-05T04:21:25.949Z,9.711666
2023-04-05T04:22:25.945Z,9.711611
2023-04-05T04:23:25.940Z,9.711624
2023-04-05T04:24:25.938Z,9.711651
2023-04-05T04:25:26.812Z,9.711620
2023-04-05T04:26:25.925Z,9.711708
2023-04-05T04:27:25.911Z,9.711650
2023-04-05T04:28:25.885Z,9.711629
2023-04-05T04:29:25.910Z,9.711651
2023-04-05T04:30:25.877Z,9.711615
2023-04-05T04:31:25.930Z,9.711630
2023-04-05T04:32:25.891Z,9.711721
2023-04-05T04:33:25.862Z,9.711727
2023-04-05T04:34:25.950Z,9.711682
2023-04-05T04:35:25.883Z,9.711691
2023-04-05T04:36:25.852Z,9.711686
2023-04-05T04:37:25.821Z,9.711672
2023-04-05T04:38:25.846Z,9.711757
2023-04-05T04:39:25.813Z,9.711699
2023-04-05T04:40:25.808Z,9.711673
2023-04-05T04:41:25.811Z,9.711805
2023-04-05T04:42:25.817Z,9.711731
2023-04-05T04:43:25.778Z,9.711692
2023-04-05T04:44:25.791Z,9.711752
2023-04-05T04:45:25.785Z,9.711678
2023-04-05T04:46:25.774Z,9.711779
2023-04-05T04:47:25.767Z,9.711576
2023-04-05T04:48:25.750Z,9.711679
2023-04-05T04:49:25.764Z,9.711566
2023-04-05T04:50:26.391Z,9.711579
2023-04-05T04:51:25.725Z,9.711796
2023-04-05T04:52:25.712Z,9.711560
2023-04-05T04:53:25.721Z,9.711680
2023-04-05T04:54:25.719Z,9.711782
2023-04-05T04:55:25.702Z,9.711913
2023-04-05T04:56:25.684Z,9.711741
2023-04-05T04:57:25.681Z,9.711599
2023-04-05T04:58:25.665Z,9.711402
2023-04-05T04:59:25.702Z,9.711874
2023-04-05T05:00:25.672Z,9.711770
2023-04-05T05:01:25.689Z,9.711875
2023-04-05T05:02:25.653Z,9.711772
2023-04-05T05:03:25.631Z,9.711700
2023-04-05T05:04:25.675Z,9.711483
2023-04-05T05:05:25.626Z,9.711717
2023-04-05T05:06:26.338Z,9.712039
2023-04-05T05:07:25.616Z,9.711915
2023-04-05T05:08:25.604Z,9.712109
2023-04-05T05:09:25.592Z,9.711947
2023-04-05T05:10:25.612Z,9.711806
2023-04-05T05:11:25.575Z,9.711744
2023-04-05T05:12:25.555Z,9.711952
2023-04-05T05:13:25.562Z,9.712252
2023-04-05T05:14:25.551Z,9.712370
2023-04-05T05:15:26.550Z,9.712077
2023-04-05T05:16:25.608Z,9.711929
2023-04-05T05:17:27.344Z,9.711750
2023-04-05T05:18:25.529Z,9.711749
2023-04-05T05:19:25.505Z,9.711692
2023-04-05T05:20:25.498Z,9.711678
2023-04-05T05:21:25.481Z,9.711718
2023-04-05T05:22:26.539Z,9.711663
2023-04-05T05:23:25.500Z,9.711686
2023-04-05T05:24:25.505Z,9.711698
2023-04-05T05:25:25.472Z,9.711695
2023-04-05T05:26:25.462Z,9.711626
2023-04-05T05:27:25.453Z,9.711612
2023-04-05T05:28:25.447Z,9.711663
2023-04-05T05:29:25.434Z,9.711663
2023-04-05T05:30:25.456Z,9.711711
2023-04-05T05:31:25.470Z,9.711626
2023-04-05T05:32:25.451Z,9.711686
2023-04-05T05:33:25.430Z,9.711678
2023-04-05T05:34:25.418Z,9.711666
2023-04-05T05:35:25.414Z,9.711671
2023-04-05T05:36:25.383Z,9.711671
2023-04-05T05:37:25.378Z,9.711670
2023-04-05T05:38:25.394Z,9.711659
2023-04-05T05:39:25.383Z,9.711683
2023-04-05T05:40:25.354Z,9.711687
2023-04-05T05:41:25.372Z,9.711694
2023-04-05T05:42:25.327Z,9.711695
2023-04-05T05:43:25.336Z,9.711679
2023-04-05T05:44:25.322Z,9.711679
2023-04-05T05:45:25.326Z,9.711685
2023-04-05T05:46:25.360Z,9.711673
2023-04-05T05:47:25.322Z,9.711673
2023-04-05T05:48:25.290Z,9.711665
2023-04-05T05:49:25.283Z,9.711652
2023-04-05T05:50:25.280Z,9.711657
2023-04-05T05:51:25.258Z,9.711675
2023-04-05T05:52:25.418Z,9.711641
2023-04-05T05:53:25.237Z,9.711625
2023-04-05T05:54:25.254Z,9.711662
2023-04-05T05:55:25.919Z,9.711662
2023-04-05T05:56:25.246Z,9.711658
2023-04-05T05:57:25.216Z,9.711628
2023-04-05T05:58:25.218Z,9.711590
2023-04-05T05:59:25.224Z,9.711623
2023-04-05T06:00:25.176Z,9.711649
2023-04-05T06:01:26.184Z,9.711650
2023-04-05T06:02:25.208Z,9.711690
2023-04-05T06:03:25.287Z,9.711691
2023-04-05T06:04:25.334Z,9.711675
2023-04-05T06:05:25.160Z,9.711791
2023-04-05T06:06:25.830Z,9.711687
2023-04-05T06:07:25.134Z,9.711748
2023-04-05T06:08:25.166Z,9.711693
2023-04-05T06:09:25.132Z,9.711718
2023-04-05T06:10:25.127Z,9.711627
2023-04-05T06:11:25.102Z,9.711665
2023-04-05T06:12:26.037Z,9.711731
2023-04-05T06:13:25.095Z,9.711653
2023-04-05T06:14:25.314Z,9.711663
2023-04-05T06:15:25.076Z,9.711677
2023-04-05T06:16:25.161Z,9.711656
2023-04-05T06:17:25.056Z,9.711775
2023-04-05T06:18:25.067Z,9.711826
2023-04-05T06:19:25.053Z,9.711767
2023-04-05T06:20:25.484Z,9.711731
2023-04-05T06:21:25.048Z,9.711766
2023-04-05T06:22:25.058Z,9.711782
2023-04-05T06:23:25.030Z,9.711689
2023-04-05T06:24:25.034Z,9.711694
2023-04-05T06:25:24.995Z,9.711578
2023-04-05T06:26:25.010Z,9.711779
2023-04-05T06:27:25.002Z,9.711741
2023-04-05T06:28:25.004Z,9.711785
2023-04-05T06:29:24.996Z,9.711682
2023-04-05T06:30:24.964Z,9.711654
2023-04-05T06:31:24.939Z,9.711749
2023-04-05T06:32:24.930Z,9.711723
2023-04-05T06:33:24.928Z,9.711638
2023-04-05T06:34:25.949Z,9.711622
2023-04-05T06:35:24.926Z,9.711663
2023-04-05T06:36:27.313Z,9.711706
2023-04-05T06:37:24.919Z,9.711691
2023-04-05T06:38:25.426Z,9.711726
2023-04-05T06:39:24.903Z,9.711732
2023-04-05T06:40:24.870Z,9.711721
2023-04-05T06:41:24.868Z,9.711679
2023-04-05T06:42:26.436Z,9.711694
2023-04-05T06:43:25.426Z,9.711679
2023-04-05T06:44:25.428Z,9.711671
2023-04-05T06:45:24.859Z,9.711677
2023-04-05T06:46:24.969Z,9.711659
2023-04-05T06:47:24.826Z,9.711672
2023-04-05T06:48:24.839Z,9.711617
2023-04-05T06:49:24.831Z,9.711659
2023-04-05T06:50:24.858Z,9.711670
2023-04-05T06:51:24.787Z,9.711661
2023-04-05T06:52:24.830Z,9.711677
2023-04-05T06:53:24.798Z,9.711636
2023-04-05T06:54:24.765Z,9.711653
2023-04-05T06:55:24.790Z,9.711681
2023-04-05T06:56:25.366Z,9.711666
2023-04-05T06:57:24.741Z,9.711627
2023-04-05T06:58:25.603Z,9.711731
2023-04-05T06:59:25.391Z,9.711750
2023-04-05T07:00:25.354Z,9.711740
2023-04-05T07:01:24.811Z,9.711666
2023-04-05T07:02:24.724Z,9.711715
2023-04-05T07:03:25.849Z,9.711787
2023-04-05T07:04:24.767Z,9.711797
2023-04-05T07:05:25.418Z,9.711843
2023-04-05T07:06:26.423Z,9.711823
2023-04-05T07:07:24.660Z,9.711782
2023-04-05T07:08:24.646Z,9.711744
2023-04-05T07:09:24.647Z,9.711832
2023-04-05T07:10:24.972Z,9.711761
2023-04-05T07:11:24.659Z,9.711573
2023-04-05T07:12:24.606Z,9.711890
2023-04-05T07:13:24.655Z,9.711762
2023-04-05T07:14:24.618Z,9.711691
2023-04-05T07:15:24.610Z,9.711750
2023-04-05T07:16:24.659Z,9.711770
2023-04-05T07:17:24.633Z,9.711537
2023-04-05T07:18:25.581Z,9.711580
2023-04-05T07:19:24.573Z,9.711617
2023-04-05T07:20:24.581Z,9.711591
2023-04-05T07:21:24.583Z,9.711542
2023-04-05T07:22:24.525Z,9.711584
2023-04-05T07:23:24.520Z,9.711607
2023-04-05T07:24:24.526Z,9.711744
2023-04-05T07:25:24.539Z,9.711621
2023-04-05T07:26:24.514Z,9.711802
2023-04-05T07:27:24.491Z,9.711732
2023-04-05T07:28:24.491Z,9.711598
2023-04-05T07:29:24.489Z,9.711766
2023-04-05T07:30:24.490Z,9.711815
2023-04-05T07:31:24.467Z,9.711678
2023-04-05T07:32:24.606Z,9.711556
2023-04-05T07:33:24.450Z,9.711555
2023-04-05T07:34:24.466Z,9.711762
2023-04-05T07:35:24.460Z,9.711778
2023-04-05T07:36:24.435Z,9.711749
2023-04-05T07:37:24.426Z,9.712113
2023-04-05T07:38:24.407Z,9.711834
2023-04-05T07:39:24.406Z,9.711505
2023-04-05T07:40:24.397Z,9.711941
2023-04-05T07:41:24.383Z,9.712113
2023-04-05T07:42:24.382Z,9.711855
2023-04-05T07:43:24.368Z,9.711830
2023-04-05T07:44:24.403Z,9.711943
2023-04-05T07:45:24.350Z,9.711823
2023-04-05T07:46:24.423Z,9.711830
2023-04-05T07:47:24.480Z,9.711950
2023-04-05T07:48:24.391Z,9.711894
2023-04-05T07:49:25.357Z,9.711995
2023-04-05T07:50:24.321Z,9.712062
2023-04-05T07:51:24.310Z,9.712081
2023-04-05T07:52:24.290Z,9.711909
2023-04-05T07:53:24.309Z,9.711959
2023-04-05T07:54:24.280Z,9.712064
2023-04-05T07:55:24.294Z,9.711966
2023-04-05T07:56:24.306Z,9.711898
2023-04-05T07:57:24.323Z,9.711864
2023-04-05T07:58:24.252Z,9.711664
2023-04-05T07:59:24.347Z,9.711411
2023-04-05T08:00:24.256Z,9.711687
2023-04-05T08:01:24.222Z,9.711936
2023-04-05T08:02:24.227Z,9.712193
2023-04-05T08:03:24.301Z,9.712405
2023-04-05T08:04:24.203Z,9.712471
2023-04-05T08:05:24.366Z,9.712372
2023-04-05T08:06:24.194Z,9.712396
2023-04-05T08:07:24.179Z,9.712112
2023-04-05T08:08:24.172Z,9.712072
2023-04-05T08:09:24.170Z,9.711840
2023-04-05T08:10:24.164Z,9.711862
2023-04-05T08:11:24.150Z,9.711892
2023-04-05T08:12:24.149Z,9.712148
2023-04-05T08:13:24.121Z,9.712225
2023-04-05T08:14:24.132Z,9.712296
2023-04-05T08:15:24.117Z,9.712101
2023-04-05T08:16:24.200Z,9.712069
2023-04-05T08:17:24.102Z,9.711633
2023-04-05T08:18:24.108Z,9.712079
2023-04-05T08:19:24.970Z,9.711882
2023-04-05T08:20:24.089Z,9.711670
2023-04-05T08:21:24.080Z,9.711876
2023-04-05T08:22:24.080Z,9.711956
2023-04-05T08:23:24.063Z,9.712121
2023-04-05T08:24:24.083Z,9.712059
2023-04-05T08:25:24.038Z,9.712088
2023-04-05T08:26:24.058Z,9.712485
2023-04-05T08:27:24.017Z,9.712206
2023-04-05T08:28:24.002Z,9.712003
2023-04-05T08:29:24.025Z,9.712340
2023-04-05T08:30:23.991Z,9.711824
2023-04-05T08:31:24.025Z,9.711842
2023-04-05T08:32:23.976Z,9.712007
2023-04-05T08:33:23.960Z,9.712202
2023-04-05T08:34:23.965Z,9.712178
2023-04-05T08:35:23.964Z,9.712049
2023-04-05T08:36:23.966Z,9.711877
2023-04-05T08:37:23.942Z,9.712012
2023-04-05T08:38:23.910Z,9.712085
2023-04-05T08:39:23.926Z,9.712242
2023-04-05T08:40:23.898Z,9.712021
2023-04-05T08:41:23.937Z,9.711883
2023-04-05T08:42:23.889Z,9.711951
2023-04-05T08:43:23.884Z,9.711626
2023-04-05T08:44:23.879Z,9.711782
2023-04-05T08:45:23.878Z,9.711770
2023-04-05T08:46:23.997Z,9.712041
2023-04-05T08:47:23.934Z,9.711976
2023-04-05T08:48:23.843Z,9.711893
2023-04-05T08:49:23.919Z,9.711910
2023-04-05T08:50:23.847Z,9.711792
2023-04-05T08:51:23.848Z,9.711782
2023-04-05T08:52:23.864Z,9.711734
2023-04-05T08:53:23.808Z,9.711679
2023-04-05T08:54:23.845Z,9.711729
2023-04-05T08:55:23.806Z,9.711735
2023-04-05T08:56:23.810Z,9.711637
2023-04-05T08:57:23.798Z,9.711608
2023-04-05T08:58:23.826Z,9.711679
2023-04-05T08:59:23.815Z,9.711783
2023-04-05T09:00:23.773Z,9.711840
2023-04-05T09:01:23.759Z,9.711866
2023-04-05T09:02:23.764Z,9.711791
2023-04-05T09:03:23.847Z,9.711713
2023-04-05T09:04:23.727Z,9.711749
2023-04-05T09:05:23.726Z,9.711743
2023-04-05T09:06:23.723Z,9.711701
2023-04-05T09:07:23.694Z,9.711743
2023-04-05T09:08:23.779Z,9.711775
2023-04-05T09:09:23.676Z,9.711774
2023-04-05T09:10:23.675Z,9.711718
2023-04-05T09:11:23.690Z,9.711767
2023-04-05T09:12:23.662Z,9.711763
2023-04-05T09:13:23.652Z,9.711733
2023-04-05T09:14:23.657Z,9.711679
2023-04-05T09:15:24.515Z,9.711584
2023-04-05T09:16:23.695Z,9.711839
2023-04-05T09:17:23.614Z,9.711974
2023-04-05T09:18:27.051Z,9.711964
2023-04-05T09:19:24.615Z,9.711953
2023-04-05T09:20:23.603Z,9.712148
2023-04-05T09:21:23.596Z,9.711932
2023-04-05T09:22:24.480Z,9.712097
2023-04-05T09:23:23.581Z,9.712593
2023-04-05T09:24:23.571Z,9.713444
2023-04-05T09:25:23.570Z,9.713149
2023-04-05T09:26:23.547Z,9.713024
2023-04-05T09:27:23.535Z,9.712515
2023-04-05T09:28:23.680Z,9.712511
2023-04-05T09:29:23.517Z,9.712496
2023-04-05T09:30:23.559Z,9.712726
2023-04-05T09:31:23.588Z,9.712263
2023-04-05T09:32:23.512Z,9.712140
2023-04-05T09:33:23.492Z,9.711891
2023-04-05T09:34:23.489Z,9.711740
2023-04-05T09:35:23.479Z,9.711802
2023-04-05T09:36:23.482Z,9.711727
2023-04-05T09:37:24.389Z,9.711713
2023-04-05T09:38:23.463Z,9.711786
2023-04-05T09:39:23.992Z,9.711594
2023-04-05T09:40:23.436Z,9.711700
2023-04-05T09:43:31.387Z,9.712013
2023-04-05T09:44:31.375Z,9.711637
2023-04-05T09:45:31.353Z,9.711651
2023-04-05T09:46:31.405Z,9.711722
2023-04-05T09:47:31.544Z,9.711679
2023-04-05T09:48:31.348Z,9.711639
2023-04-05T09:49:31.345Z,9.711678
2023-04-05T09:50:31.306Z,9.711663
2023-04-05T09:51:31.313Z,9.711649
2023-04-05T09:52:31.309Z,9.711682
2023-04-05T09:53:31.305Z,9.711729
2023-04-05T09:54:31.314Z,9.711692
2023-04-05T09:55:31.284Z,9.711693
2023-04-05T09:56:31.263Z,9.711740
2023-04-05T09:57:31.243Z,9.711706
2023-04-05T09:58:31.239Z,9.711712
2023-04-05T09:59:31.355Z,9.711702
2023-04-05T10:00:32.229Z,9.711707
2023-04-05T10:01:32.171Z,9.711719
2023-04-05T10:02:31.253Z,9.711656
2023-04-05T10:03:31.243Z,9.711653
2023-04-05T10:04:32.193Z,9.711688
2023-04-05T10:05:31.183Z,9.711711
2023-04-05T10:06:31.189Z,9.711664
2023-04-05T10:07:31.167Z,9.711678
2023-04-05T10:08:32.821Z,9.711711
2023-04-05T10:09:31.299Z,9.711698
2023-04-05T10:10:31.166Z,9.711725
2023-04-05T10:11:31.142Z,9.711695
2023-04-05T10:12:31.124Z,9.711698
2023-04-05T10:13:31.134Z,9.711725
2023-04-05T10:14:31.230Z,9.711757
2023-04-05T10:15:31.090Z,9.711728
2023-04-05T10:16:31.128Z,9.711676
2023-04-05T10:17:31.108Z,9.711665
2023-04-05T10:18:31.077Z,9.711706
2023-04-05T10:19:31.082Z,9.711677
2023-04-05T10:20:31.053Z,9.711668
2023-04-05T10:21:31.063Z,9.711704
2023-04-05T10:22:31.061Z,9.711691
2023-04-05T10:23:31.051Z,9.711679
2023-04-05T10:24:31.023Z,9.711693
2023-04-05T10:25:31.038Z,9.711638
2023-04-05T10:26:31.011Z,9.711728
2023-04-05T10:27:31.008Z,9.711740
2023-04-05T10:28:31.476Z,9.711691
2023-04-05T10:29:31.055Z,9.711683
2023-04-05T10:30:31.005Z,9.711742
2023-04-05T10:31:37.787Z,9.711857
2023-04-05T10:32:33.068Z,9.711640
2023-04-05T10:33:30.951Z,9.711563
2023-04-05T10:34:32.160Z,9.711497
2023-04-05T10:35:30.933Z,9.711549
2023-04-05T10:36:30.951Z,9.711635
2023-04-05T10:37:30.954Z,9.711575
2023-04-05T10:38:30.905Z,9.711586
2023-04-05T10:39:30.904Z,9.711709
2023-04-05T10:40:30.916Z,9.711752
2023-04-05T10:41:30.924Z,9.711663
2023-04-05T10:42:30.878Z,9.711690
2023-04-05T10:43:31.658Z,9.711709
2023-04-05T10:44:30.868Z,9.711680
2023-04-05T10:45:31.710Z,9.711670
2023-04-05T10:46:30.895Z,9.711844
2023-04-05T10:47:31.722Z,9.711759
2023-04-05T10:48:30.823Z,9.711883
2023-04-05T10:49:30.876Z,9.711884
2023-04-05T10:50:30.805Z,9.712049
2023-04-05T10:51:30.827Z,9.711940
2023-04-05T10:52:30.876Z,9.711794
2023-04-05T10:53:30.823Z,9.711684
2023-04-05T10:54:30.804Z,9.711726
2023-04-05T10:55:30.842Z,9.711699
2023-04-05T10:56:30.775Z,9.711704
2023-04-05T10:57:30.844Z,9.711836
2023-04-05T10:58:31.278Z,9.712012
2023-04-05T10:59:30.770Z,9.712242
2023-04-05T11:00:30.768Z,9.712271
2023-04-05T11:01:31.726Z,9.712049
2023-04-05T11:02:30.760Z,9.711783
2023-04-05T11:03:30.875Z,9.711521
2023-04-05T11:04:30.763Z,9.711440
2023-04-05T11:05:30.768Z,9.711658
2023-04-05T11:06:30.669Z,9.711651
2023-04-05T11:07:30.679Z,9.711616
2023-04-05T11:08:30.657Z,9.711379
2023-04-05T11:09:30.657Z,9.711645
2023-04-05T11:10:30.665Z,9.711766
2023-04-05T11:11:30.644Z,9.711618
2023-04-05T11:12:30.632Z,9.712038
2023-04-05T11:13:30.642Z,9.712125
2023-04-05T11:14:30.617Z,9.712333
2023-04-05T11:15:30.732Z,9.712191
2023-04-05T11:16:30.636Z,9.712024
2023-04-05T11:17:30.602Z,9.711751
2023-04-05T11:18:30.597Z,9.711842
2023-04-05T11:19:30.582Z,9.711978
2023-04-05T11:20:30.579Z,9.712349
2023-04-05T11:21:30.568Z,9.712475
2023-04-05T11:22:30.564Z,9.712432
2023-04-05T11:23:30.564Z,9.712288
2023-04-05T11:24:30.762Z,9.712231
2023-04-05T11:25:30.535Z,9.711763
2023-04-05T11:26:30.515Z,9.711369
2023-04-05T11:27:30.522Z,9.711506
2023-04-05T11:28:30.547Z,9.711312
2023-04-05T11:29:30.496Z,9.711255
2023-04-05T11:30:30.490Z,9.711431
2023-04-05T11:31:30.529Z,9.711448
2023-04-05T11:32:30.516Z,9.711415
2023-04-05T11:33:30.502Z,9.711667
2023-04-05T11:34:30.497Z,9.711731
2023-04-05T11:35:30.465Z,9.711790
2023-04-05T11:36:30.494Z,9.711751
2023-04-05T11:37:30.418Z,9.711767
2023-04-05T11:38:30.425Z,9.711789
2023-04-05T11:39:30.428Z,9.711736
2023-04-05T11:40:30.403Z,9.711677
2023-04-05T11:41:30.403Z,9.711703
2023-04-05T11:42:30.378Z,9.711771
2023-04-05T11:43:30.421Z,9.711761
2023-04-05T11:44:30.381Z,9.711654
2023-04-05T11:45:32.043Z,9.711637
2023-04-05T11:46:31.476Z,9.711674
2023-04-05T11:47:30.410Z,9.711706
2023-04-05T11:48:31.340Z,9.711759
2023-04-05T11:49:30.331Z,9.711665
2023-04-05T11:50:30.341Z,9.711664
2023-04-05T11:51:31.247Z,9.711610